sensor_id;sensor_type;location;lat;lon;timestamp;P1;durP1;ratioP1;P2;durP2;ratioP2
40198;SDS011;25906;43.536;26.068;2024-01-30T00:00:30;21.83;;;9.68;;
40198;SDS011;25906;43.536;26.068;2024-01-30T00:03:15;23.02;;;9.80;;
40198;SDS011;25906;43.536;26.068;2024-01-30T00:06:02;19.60;;;9.57;;
40198;SDS011;25906;43.536;26.068;2024-01-30T00:08:48;22.45;;;10.18;;
40198;SDS011;25906;43.536;26.068;2024-01-30T00:11:34;21.83;;;10.32;;
40198;SDS011;25906;43.536;26.068;2024-01-30T00:17:05;21.20;;;8.80;;
40198;SDS011;25906;43.536;26.068;2024-01-30T00:19:50;18.52;;;9.38;;
40198;SDS011;25906;43.536;26.068;2024-01-30T00:22:35;21.02;;;9.05;;
40198;SDS011;25906;43.536;26.068;2024-01-30T00:25:21;20.35;;;10.35;;
40198;SDS011;25906;43.536;26.068;2024-01-30T00:28:06;18.00;;;9.25;;
40198;SDS011;25906;43.536;26.068;2024-01-30T00:30:52;19.88;;;9.65;;
40198;SDS011;25906;43.536;26.068;2024-01-30T00:33:40;22.15;;;8.93;;
40198;SDS011;25906;43.536;26.068;2024-01-30T00:36:26;21.17;;;9.20;;
40198;SDS011;25906;43.536;26.068;2024-01-30T00:39:12;20.45;;;9.30;;
40198;SDS011;25906;43.536;26.068;2024-01-30T00:42:00;19.95;;;9.55;;
40198;SDS011;25906;43.536;26.068;2024-01-30T00:44:45;17.73;;;8.30;;
40198;SDS011;25906;43.536;26.068;2024-01-30T00:47:31;22.55;;;9.38;;
40198;SDS011;25906;43.536;26.068;2024-01-30T00:50:18;19.08;;;8.63;;
40198;SDS011;25906;43.536;26.068;2024-01-30T00:53:03;18.17;;;9.05;;
40198;SDS011;25906;43.536;26.068;2024-01-30T00:55:48;18.80;;;9.23;;
40198;SDS011;25906;43.536;26.068;2024-01-30T00:58:34;17.90;;;9.18;;
40198;SDS011;25906;43.536;26.068;2024-01-30T01:01:19;19.10;;;8.45;;
40198;SDS011;25906;43.536;26.068;2024-01-30T01:04:05;16.08;;;8.38;;
40198;SDS011;25906;43.536;26.068;2024-01-30T01:06:50;22.35;;;9.98;;
40198;SDS011;25906;43.536;26.068;2024-01-30T01:09:35;17.52;;;9.43;;
40198;SDS011;25906;43.536;26.068;2024-01-30T01:12:21;19.48;;;9.55;;
40198;SDS011;25906;43.536;26.068;2024-01-30T01:15:06;20.90;;;9.43;;
40198;SDS011;25906;43.536;26.068;2024-01-30T01:17:56;21.70;;;8.80;;
40198;SDS011;25906;43.536;26.068;2024-01-30T01:20:42;18.98;;;8.75;;
40198;SDS011;25906;43.536;26.068;2024-01-30T01:23:27;19.63;;;9.00;;
40198;SDS011;25906;43.536;26.068;2024-01-30T01:26:13;20.83;;;9.50;;
40198;SDS011;25906;43.536;26.068;2024-01-30T01:28:58;20.15;;;9.70;;
40198;SDS011;25906;43.536;26.068;2024-01-30T01:31:44;21.65;;;8.65;;
40198;SDS011;25906;43.536;26.068;2024-01-30T01:34:29;19.42;;;9.32;;
40198;SDS011;25906;43.536;26.068;2024-01-30T01:37:15;19.80;;;9.20;;
40198;SDS011;25906;43.536;26.068;2024-01-30T01:42:46;16.05;;;7.78;;
40198;SDS011;25906;43.536;26.068;2024-01-30T01:45:31;15.27;;;8.07;;
40198;SDS011;25906;43.536;26.068;2024-01-30T01:48:16;17.00;;;8.63;;
40198;SDS011;25906;43.536;26.068;2024-01-30T01:53:48;18.58;;;7.47;;
40198;SDS011;25906;43.536;26.068;2024-01-30T01:56:33;17.60;;;8.57;;
40198;SDS011;25906;43.536;26.068;2024-01-30T01:59:19;15.43;;;7.75;;
40198;SDS011;25906;43.536;26.068;2024-01-30T02:02:05;16.02;;;8.10;;
40198;SDS011;25906;43.536;26.068;2024-01-30T02:04:57;14.48;;;7.45;;
40198;SDS011;25906;43.536;26.068;2024-01-30T02:07:43;19.63;;;8.55;;
40198;SDS011;25906;43.536;26.068;2024-01-30T02:10:29;13.07;;;7.22;;
40198;SDS011;25906;43.536;26.068;2024-01-30T02:13:14;17.50;;;8.07;;
40198;SDS011;25906;43.536;26.068;2024-01-30T02:16:00;17.95;;;7.93;;
40198;SDS011;25906;43.536;26.068;2024-01-30T02:18:46;17.08;;;8.50;;
40198;SDS011;25906;43.536;26.068;2024-01-30T02:21:33;21.95;;;9.15;;
40198;SDS011;25906;43.536;26.068;2024-01-30T02:24:18;18.20;;;9.05;;
40198;SDS011;25906;43.536;26.068;2024-01-30T02:27:04;21.25;;;8.68;;
40198;SDS011;25906;43.536;26.068;2024-01-30T02:29:49;22.33;;;8.73;;
40198;SDS011;25906;43.536;26.068;2024-01-30T02:32:34;20.48;;;9.18;;
40198;SDS011;25906;43.536;26.068;2024-01-30T02:35:20;23.13;;;8.80;;
40198;SDS011;25906;43.536;26.068;2024-01-30T02:38:05;20.00;;;9.15;;
40198;SDS011;25906;43.536;26.068;2024-01-30T02:40:51;18.50;;;7.38;;
40198;SDS011;25906;43.536;26.068;2024-01-30T02:43:36;19.27;;;9.05;;
40198;SDS011;25906;43.536;26.068;2024-01-30T02:46:21;15.18;;;7.85;;
40198;SDS011;25906;43.536;26.068;2024-01-30T02:49:07;16.52;;;8.05;;
40198;SDS011;25906;43.536;26.068;2024-01-30T02:51:53;20.33;;;8.82;;
40198;SDS011;25906;43.536;26.068;2024-01-30T02:54:39;17.55;;;7.68;;
40198;SDS011;25906;43.536;26.068;2024-01-30T02:57:24;14.95;;;7.70;;
40198;SDS011;25906;43.536;26.068;2024-01-30T03:00:10;20.25;;;8.60;;
40198;SDS011;25906;43.536;26.068;2024-01-30T03:02:55;18.20;;;8.52;;
40198;SDS011;25906;43.536;26.068;2024-01-30T03:05:41;18.02;;;8.45;;
40198;SDS011;25906;43.536;26.068;2024-01-30T03:08:26;15.80;;;7.95;;
40198;SDS011;25906;43.536;26.068;2024-01-30T03:11:12;22.75;;;7.75;;
40198;SDS011;25906;43.536;26.068;2024-01-30T03:13:57;18.65;;;8.63;;
40198;SDS011;25906;43.536;26.068;2024-01-30T03:16:43;15.73;;;7.90;;
40198;SDS011;25906;43.536;26.068;2024-01-30T03:19:28;16.83;;;8.52;;
40198;SDS011;25906;43.536;26.068;2024-01-30T03:22:13;17.35;;;8.05;;
40198;SDS011;25906;43.536;26.068;2024-01-30T03:24:59;17.75;;;8.43;;
40198;SDS011;25906;43.536;26.068;2024-01-30T03:27:44;16.17;;;7.50;;
40198;SDS011;25906;43.536;26.068;2024-01-30T03:30:30;17.33;;;7.38;;
40198;SDS011;25906;43.536;26.068;2024-01-30T03:33:15;15.68;;;7.53;;
40198;SDS011;25906;43.536;26.068;2024-01-30T03:36:04;17.55;;;8.45;;
40198;SDS011;25906;43.536;26.068;2024-01-30T03:38:50;17.52;;;9.10;;
40198;SDS011;25906;43.536;26.068;2024-01-30T03:41:37;17.02;;;7.82;;
40198;SDS011;25906;43.536;26.068;2024-01-30T03:44:22;17.73;;;8.35;;
40198;SDS011;25906;43.536;26.068;2024-01-30T03:47:07;19.45;;;8.43;;
40198;SDS011;25906;43.536;26.068;2024-01-30T03:49:53;16.65;;;7.60;;
40198;SDS011;25906;43.536;26.068;2024-01-30T03:52:38;17.13;;;7.95;;
40198;SDS011;25906;43.536;26.068;2024-01-30T03:55:24;21.13;;;8.32;;
40198;SDS011;25906;43.536;26.068;2024-01-30T03:58:09;14.07;;;7.63;;
40198;SDS011;25906;43.536;26.068;2024-01-30T04:00:54;20.75;;;9.15;;
40198;SDS011;25906;43.536;26.068;2024-01-30T04:03:40;17.55;;;8.38;;
40198;SDS011;25906;43.536;26.068;2024-01-30T04:06:26;16.25;;;7.88;;
40198;SDS011;25906;43.536;26.068;2024-01-30T04:09:14;17.67;;;7.95;;
40198;SDS011;25906;43.536;26.068;2024-01-30T04:12:00;14.15;;;7.88;;
40198;SDS011;25906;43.536;26.068;2024-01-30T04:14:47;16.25;;;8.05;;
40198;SDS011;25906;43.536;26.068;2024-01-30T04:17:33;18.48;;;8.18;;
40198;SDS011;25906;43.536;26.068;2024-01-30T04:20:18;16.00;;;7.53;;
40198;SDS011;25906;43.536;26.068;2024-01-30T04:23:04;15.70;;;7.72;;
40198;SDS011;25906;43.536;26.068;2024-01-30T04:25:49;16.38;;;7.80;;
40198;SDS011;25906;43.536;26.068;2024-01-30T04:28:35;15.02;;;7.63;;
40198;SDS011;25906;43.536;26.068;2024-01-30T04:31:20;17.77;;;8.18;;
40198;SDS011;25906;43.536;26.068;2024-01-30T04:34:05;19.17;;;9.07;;
40198;SDS011;25906;43.536;26.068;2024-01-30T04:36:51;16.90;;;8.35;;
40198;SDS011;25906;43.536;26.068;2024-01-30T04:39:36;17.30;;;7.28;;
40198;SDS011;25906;43.536;26.068;2024-01-30T04:42:22;18.95;;;8.25;;
40198;SDS011;25906;43.536;26.068;2024-01-30T04:45:08;14.68;;;7.55;;
40198;SDS011;25906;43.536;26.068;2024-01-30T04:47:53;18.33;;;8.55;;
40198;SDS011;25906;43.536;26.068;2024-01-30T04:50:39;17.58;;;8.32;;
40198;SDS011;25906;43.536;26.068;2024-01-30T04:53:24;16.60;;;8.57;;
40198;SDS011;25906;43.536;26.068;2024-01-30T04:56:10;17.02;;;7.88;;
40198;SDS011;25906;43.536;26.068;2024-01-30T04:58:55;15.57;;;8.13;;
40198;SDS011;25906;43.536;26.068;2024-01-30T05:01:41;18.00;;;8.23;;
40198;SDS011;25906;43.536;26.068;2024-01-30T05:04:26;19.25;;;8.43;;
40198;SDS011;25906;43.536;26.068;2024-01-30T05:07:12;17.48;;;8.07;;
40198;SDS011;25906;43.536;26.068;2024-01-30T05:09:57;18.52;;;8.40;;
40198;SDS011;25906;43.536;26.068;2024-01-30T05:12:43;18.15;;;8.90;;
40198;SDS011;25906;43.536;26.068;2024-01-30T05:15:29;14.82;;;7.78;;
40198;SDS011;25906;43.536;26.068;2024-01-30T05:18:14;18.63;;;8.77;;
40198;SDS011;25906;43.536;26.068;2024-01-30T05:20:59;16.50;;;7.70;;
40198;SDS011;25906;43.536;26.068;2024-01-30T05:23:45;19.42;;;8.60;;
40198;SDS011;25906;43.536;26.068;2024-01-30T05:26:30;17.20;;;8.18;;
40198;SDS011;25906;43.536;26.068;2024-01-30T05:29:16;17.38;;;8.10;;
40198;SDS011;25906;43.536;26.068;2024-01-30T05:34:48;20.48;;;8.82;;
40198;SDS011;25906;43.536;26.068;2024-01-30T05:37:35;16.60;;;8.07;;
40198;SDS011;25906;43.536;26.068;2024-01-30T05:40:20;15.32;;;7.53;;
40198;SDS011;25906;43.536;26.068;2024-01-30T05:43:06;17.17;;;7.97;;
40198;SDS011;25906;43.536;26.068;2024-01-30T05:45:52;16.38;;;8.32;;
40198;SDS011;25906;43.536;26.068;2024-01-30T05:48:38;16.45;;;7.78;;
40198;SDS011;25906;43.536;26.068;2024-01-30T05:51:23;18.88;;;8.50;;
40198;SDS011;25906;43.536;26.068;2024-01-30T05:54:09;17.98;;;7.65;;
40198;SDS011;25906;43.536;26.068;2024-01-30T05:59:40;15.73;;;7.13;;
40198;SDS011;25906;43.536;26.068;2024-01-30T06:02:25;17.58;;;7.32;;
40198;SDS011;25906;43.536;26.068;2024-01-30T06:05:11;18.52;;;8.15;;
40198;SDS011;25906;43.536;26.068;2024-01-30T06:07:56;15.48;;;7.95;;
40198;SDS011;25906;43.536;26.068;2024-01-30T06:10:42;16.70;;;8.30;;
40198;SDS011;25906;43.536;26.068;2024-01-30T06:16:15;17.23;;;8.02;;
40198;SDS011;25906;43.536;26.068;2024-01-30T06:19:01;18.27;;;8.07;;
40198;SDS011;25906;43.536;26.068;2024-01-30T06:21:46;15.90;;;7.60;;
40198;SDS011;25906;43.536;26.068;2024-01-30T06:24:32;20.00;;;7.60;;
40198;SDS011;25906;43.536;26.068;2024-01-30T06:27:19;15.35;;;7.43;;
40198;SDS011;25906;43.536;26.068;2024-01-30T06:30:04;17.58;;;8.63;;
40198;SDS011;25906;43.536;26.068;2024-01-30T06:32:50;14.95;;;7.60;;
40198;SDS011;25906;43.536;26.068;2024-01-30T06:35:36;17.15;;;7.55;;
40198;SDS011;25906;43.536;26.068;2024-01-30T06:38:24;25.00;;;11.32;;
40198;SDS011;25906;43.536;26.068;2024-01-30T06:41:10;82.85;;;31.80;;
40198;SDS011;25906;43.536;26.068;2024-01-30T06:43:55;34.55;;;15.75;;
40198;SDS011;25906;43.536;26.068;2024-01-30T06:46:41;24.40;;;11.70;;
40198;SDS011;25906;43.536;26.068;2024-01-30T06:49:27;18.42;;;9.25;;
40198;SDS011;25906;43.536;26.068;2024-01-30T06:52:12;18.60;;;9.25;;
40198;SDS011;25906;43.536;26.068;2024-01-30T06:54:58;16.00;;;7.70;;
40198;SDS011;25906;43.536;26.068;2024-01-30T06:57:43;23.25;;;10.00;;
40198;SDS011;25906;43.536;26.068;2024-01-30T07:00:28;17.17;;;9.02;;
40198;SDS011;25906;43.536;26.068;2024-01-30T07:03:14;19.80;;;9.95;;
40198;SDS011;25906;43.536;26.068;2024-01-30T07:05:59;17.48;;;8.35;;
40198;SDS011;25906;43.536;26.068;2024-01-30T07:08:45;21.00;;;10.40;;
40198;SDS011;25906;43.536;26.068;2024-01-30T07:11:30;17.20;;;8.57;;
40198;SDS011;25906;43.536;26.068;2024-01-30T07:14:17;18.48;;;8.40;;
40198;SDS011;25906;43.536;26.068;2024-01-30T07:17:02;21.13;;;9.05;;
40198;SDS011;25906;43.536;26.068;2024-01-30T07:19:48;16.38;;;7.43;;
40198;SDS011;25906;43.536;26.068;2024-01-30T07:22:33;16.17;;;8.63;;
40198;SDS011;25906;43.536;26.068;2024-01-30T07:25:19;17.58;;;8.20;;
40198;SDS011;25906;43.536;26.068;2024-01-30T07:28:04;15.75;;;8.48;;
40198;SDS011;25906;43.536;26.068;2024-01-30T07:30:50;20.27;;;8.32;;
40198;SDS011;25906;43.536;26.068;2024-01-30T07:33:36;17.73;;;8.98;;
40198;SDS011;25906;43.536;26.068;2024-01-30T07:36:21;20.23;;;8.65;;
40198;SDS011;25906;43.536;26.068;2024-01-30T07:39:07;28.55;;;12.50;;
40198;SDS011;25906;43.536;26.068;2024-01-30T07:41:52;19.42;;;8.88;;
40198;SDS011;25906;43.536;26.068;2024-01-30T07:44:38;19.10;;;7.80;;
40198;SDS011;25906;43.536;26.068;2024-01-30T07:47:23;22.23;;;9.25;;
40198;SDS011;25906;43.536;26.068;2024-01-30T07:50:09;20.65;;;9.48;;
40198;SDS011;25906;43.536;26.068;2024-01-30T07:52:59;19.73;;;8.55;;
40198;SDS011;25906;43.536;26.068;2024-01-30T07:55:45;21.58;;;8.43;;
40198;SDS011;25906;43.536;26.068;2024-01-30T07:58:31;18.42;;;9.57;;
40198;SDS011;25906;43.536;26.068;2024-01-30T08:01:17;19.08;;;9.65;;
40198;SDS011;25906;43.536;26.068;2024-01-30T08:04:02;35.28;;;15.43;;
40198;SDS011;25906;43.536;26.068;2024-01-30T08:06:48;26.60;;;12.38;;
40198;SDS011;25906;43.536;26.068;2024-01-30T08:09:33;20.35;;;10.02;;
40198;SDS011;25906;43.536;26.068;2024-01-30T08:12:19;20.00;;;9.40;;
40198;SDS011;25906;43.536;26.068;2024-01-30T08:15:04;21.92;;;9.82;;
40198;SDS011;25906;43.536;26.068;2024-01-30T08:17:50;19.67;;;9.70;;
40198;SDS011;25906;43.536;26.068;2024-01-30T08:20:40;21.05;;;10.52;;
40198;SDS011;25906;43.536;26.068;2024-01-30T08:23:26;17.15;;;8.80;;
40198;SDS011;25906;43.536;26.068;2024-01-30T08:26:11;15.63;;;7.63;;
40198;SDS011;25906;43.536;26.068;2024-01-30T08:28:57;16.92;;;8.63;;
40198;SDS011;25906;43.536;26.068;2024-01-30T08:31:42;19.63;;;9.43;;
40198;SDS011;25906;43.536;26.068;2024-01-30T08:34:29;17.55;;;8.45;;
40198;SDS011;25906;43.536;26.068;2024-01-30T08:37:14;19.10;;;8.55;;
40198;SDS011;25906;43.536;26.068;2024-01-30T08:40:01;19.63;;;8.70;;
40198;SDS011;25906;43.536;26.068;2024-01-30T08:42:48;20.42;;;8.63;;
40198;SDS011;25906;43.536;26.068;2024-01-30T08:45:33;15.25;;;7.32;;
40198;SDS011;25906;43.536;26.068;2024-01-30T08:48:19;17.55;;;8.10;;
40198;SDS011;25906;43.536;26.068;2024-01-30T08:51:04;19.38;;;9.40;;
40198;SDS011;25906;43.536;26.068;2024-01-30T08:53:53;18.13;;;8.63;;
40198;SDS011;25906;43.536;26.068;2024-01-30T08:56:39;20.27;;;8.93;;
40198;SDS011;25906;43.536;26.068;2024-01-30T08:59:24;19.02;;;8.48;;
40198;SDS011;25906;43.536;26.068;2024-01-30T09:02:10;23.48;;;8.93;;
40198;SDS011;25906;43.536;26.068;2024-01-30T09:04:57;18.50;;;8.18;;
40198;SDS011;25906;43.536;26.068;2024-01-30T09:07:42;20.48;;;9.63;;
40198;SDS011;25906;43.536;26.068;2024-01-30T09:10:28;19.58;;;8.68;;
40198;SDS011;25906;43.536;26.068;2024-01-30T09:13:13;21.48;;;9.10;;
40198;SDS011;25906;43.536;26.068;2024-01-30T09:15:59;17.45;;;8.75;;
40198;SDS011;25906;43.536;26.068;2024-01-30T09:18:44;18.52;;;9.27;;
40198;SDS011;25906;43.536;26.068;2024-01-30T09:21:30;18.13;;;8.88;;
40198;SDS011;25906;43.536;26.068;2024-01-30T09:24:15;18.55;;;9.18;;
40198;SDS011;25906;43.536;26.068;2024-01-30T09:27:01;21.25;;;10.77;;
40198;SDS011;25906;43.536;26.068;2024-01-30T09:29:46;20.77;;;9.90;;
40198;SDS011;25906;43.536;26.068;2024-01-30T09:32:32;20.15;;;9.13;;
40198;SDS011;25906;43.536;26.068;2024-01-30T09:35:17;19.92;;;9.50;;
40198;SDS011;25906;43.536;26.068;2024-01-30T09:38:03;22.13;;;9.43;;
40198;SDS011;25906;43.536;26.068;2024-01-30T09:40:50;20.20;;;9.32;;
40198;SDS011;25906;43.536;26.068;2024-01-30T09:43:41;18.85;;;8.50;;
40198;SDS011;25906;43.536;26.068;2024-01-30T09:46:30;23.98;;;10.90;;
40198;SDS011;25906;43.536;26.068;2024-01-30T09:49:18;22.02;;;9.27;;
40198;SDS011;25906;43.536;26.068;2024-01-30T09:52:05;21.52;;;9.30;;
40198;SDS011;25906;43.536;26.068;2024-01-30T09:54:51;21.50;;;9.55;;
40198;SDS011;25906;43.536;26.068;2024-01-30T09:57:38;20.80;;;9.32;;
40198;SDS011;25906;43.536;26.068;2024-01-30T10:00:24;17.75;;;9.20;;
40198;SDS011;25906;43.536;26.068;2024-01-30T10:03:12;18.02;;;8.35;;
40198;SDS011;25906;43.536;26.068;2024-01-30T10:05:59;24.75;;;9.20;;
40198;SDS011;25906;43.536;26.068;2024-01-30T10:08:46;21.52;;;9.10;;
40198;SDS011;25906;43.536;26.068;2024-01-30T10:11:31;25.73;;;12.30;;
40198;SDS011;25906;43.536;26.068;2024-01-30T10:14:17;22.52;;;9.13;;
40198;SDS011;25906;43.536;26.068;2024-01-30T10:17:03;19.48;;;9.27;;
40198;SDS011;25906;43.536;26.068;2024-01-30T10:22:34;24.95;;;9.85;;
40198;SDS011;25906;43.536;26.068;2024-01-30T10:25:21;21.38;;;9.40;;
40198;SDS011;25906;43.536;26.068;2024-01-30T10:28:06;25.27;;;11.35;;
40198;SDS011;25906;43.536;26.068;2024-01-30T10:30:58;21.77;;;8.73;;
40198;SDS011;25906;43.536;26.068;2024-01-30T10:33:45;20.10;;;9.13;;
40198;SDS011;25906;43.536;26.068;2024-01-30T10:36:33;23.10;;;9.02;;
40198;SDS011;25906;43.536;26.068;2024-01-30T10:39:28;16.00;;;8.60;;
40198;SDS011;25906;43.536;26.068;2024-01-30T10:42:17;21.15;;;7.85;;
40198;SDS011;25906;43.536;26.068;2024-01-30T10:45:06;20.98;;;9.15;;
40198;SDS011;25906;43.536;26.068;2024-01-30T10:47:58;16.67;;;8.05;;
40198;SDS011;25906;43.536;26.068;2024-01-30T10:50:45;23.23;;;9.75;;
40198;SDS011;25906;43.536;26.068;2024-01-30T10:53:30;18.58;;;8.73;;
40198;SDS011;25906;43.536;26.068;2024-01-30T10:56:16;20.17;;;9.07;;
40198;SDS011;25906;43.536;26.068;2024-01-30T11:01:48;15.15;;;8.20;;
40198;SDS011;25906;43.536;26.068;2024-01-30T11:04:36;16.30;;;7.88;;
40198;SDS011;25906;43.536;26.068;2024-01-30T11:07:30;19.95;;;8.75;;
40198;SDS011;25906;43.536;26.068;2024-01-30T11:10:16;19.50;;;8.40;;
40198;SDS011;25906;43.536;26.068;2024-01-30T11:15:55;15.35;;;7.97;;
40198;SDS011;25906;43.536;26.068;2024-01-30T11:18:40;15.85;;;8.00;;
40198;SDS011;25906;43.536;26.068;2024-01-30T11:21:26;19.10;;;8.80;;
40198;SDS011;25906;43.536;26.068;2024-01-30T11:24:11;17.92;;;8.30;;
40198;SDS011;25906;43.536;26.068;2024-01-30T11:26:59;19.17;;;8.18;;
40198;SDS011;25906;43.536;26.068;2024-01-30T11:29:49;18.30;;;8.02;;
40198;SDS011;25906;43.536;26.068;2024-01-30T11:32:36;17.25;;;8.90;;
40198;SDS011;25906;43.536;26.068;2024-01-30T11:35:22;16.35;;;8.55;;
40198;SDS011;25906;43.536;26.068;2024-01-30T11:38:10;16.90;;;8.38;;
40198;SDS011;25906;43.536;26.068;2024-01-30T11:40:58;20.27;;;8.93;;
40198;SDS011;25906;43.536;26.068;2024-01-30T11:43:53;18.63;;;8.55;;
40198;SDS011;25906;43.536;26.068;2024-01-30T11:46:39;18.02;;;8.57;;
40198;SDS011;25906;43.536;26.068;2024-01-30T11:49:24;17.60;;;8.35;;
40198;SDS011;25906;43.536;26.068;2024-01-30T11:52:10;19.48;;;8.23;;
40198;SDS011;25906;43.536;26.068;2024-01-30T11:57:41;14.25;;;7.57;;
40198;SDS011;25906;43.536;26.068;2024-01-30T12:00:27;16.40;;;8.32;;
40198;SDS011;25906;43.536;26.068;2024-01-30T12:03:12;16.92;;;8.68;;
40198;SDS011;25906;43.536;26.068;2024-01-30T12:05:58;15.35;;;7.28;;
40198;SDS011;25906;43.536;26.068;2024-01-30T12:14:32;14.55;;;7.45;;
40198;SDS011;25906;43.536;26.068;2024-01-30T12:20:14;14.63;;;7.93;;
40198;SDS011;25906;43.536;26.068;2024-01-30T12:23:02;16.05;;;7.82;;
40198;SDS011;25906;43.536;26.068;2024-01-30T12:28:34;14.15;;;7.18;;
40198;SDS011;25906;43.536;26.068;2024-01-30T12:31:25;27.90;;;7.20;;
40198;SDS011;25906;43.536;26.068;2024-01-30T12:34:16;12.25;;;6.57;;
40198;SDS011;25906;43.536;26.068;2024-01-30T12:37:02;11.60;;;7.15;;
40198;SDS011;25906;43.536;26.068;2024-01-30T12:39:48;13.55;;;7.15;;
40198;SDS011;25906;43.536;26.068;2024-01-30T12:42:33;13.43;;;6.75;;
40198;SDS011;25906;43.536;26.068;2024-01-30T12:45:19;15.30;;;7.78;;
40198;SDS011;25906;43.536;26.068;2024-01-30T12:48:06;13.02;;;6.80;;
40198;SDS011;25906;43.536;26.068;2024-01-30T12:50:52;19.80;;;8.45;;
40198;SDS011;25906;43.536;26.068;2024-01-30T12:53:37;14.90;;;7.15;;
40198;SDS011;25906;43.536;26.068;2024-01-30T12:56:23;12.20;;;6.18;;
40198;SDS011;25906;43.536;26.068;2024-01-30T12:59:09;12.35;;;5.78;;
40198;SDS011;25906;43.536;26.068;2024-01-30T13:01:54;8.35;;;4.70;;
40198;SDS011;25906;43.536;26.068;2024-01-30T13:04:40;9.55;;;4.15;;
40198;SDS011;25906;43.536;26.068;2024-01-30T13:07:25;6.95;;;3.78;;
40198;SDS011;25906;43.536;26.068;2024-01-30T13:10:11;8.55;;;3.67;;
40198;SDS011;25906;43.536;26.068;2024-01-30T13:12:56;8.73;;;4.00;;
40198;SDS011;25906;43.536;26.068;2024-01-30T13:15:42;10.15;;;4.13;;
40198;SDS011;25906;43.536;26.068;2024-01-30T13:18:27;7.78;;;4.50;;
40198;SDS011;25906;43.536;26.068;2024-01-30T13:21:13;11.35;;;5.85;;
40198;SDS011;25906;43.536;26.068;2024-01-30T13:24:00;14.50;;;5.75;;
40198;SDS011;25906;43.536;26.068;2024-01-30T13:26:46;12.18;;;6.25;;
40198;SDS011;25906;43.536;26.068;2024-01-30T13:29:32;10.27;;;4.60;;
40198;SDS011;25906;43.536;26.068;2024-01-30T13:32:18;7.35;;;3.35;;
40198;SDS011;25906;43.536;26.068;2024-01-30T13:35:03;7.43;;;4.18;;
40198;SDS011;25906;43.536;26.068;2024-01-30T13:37:49;9.82;;;4.40;;
40198;SDS011;25906;43.536;26.068;2024-01-30T13:40:35;6.38;;;3.60;;
40198;SDS011;25906;43.536;26.068;2024-01-30T13:43:20;9.07;;;4.78;;
40198;SDS011;25906;43.536;26.068;2024-01-30T13:46:05;12.18;;;5.15;;
40198;SDS011;25906;43.536;26.068;2024-01-30T13:48:52;12.00;;;6.30;;
40198;SDS011;25906;43.536;26.068;2024-01-30T13:51:37;10.95;;;4.95;;
40198;SDS011;25906;43.536;26.068;2024-01-30T13:54:23;8.73;;;4.72;;
40198;SDS011;25906;43.536;26.068;2024-01-30T13:57:09;12.43;;;6.18;;
40198;SDS011;25906;43.536;26.068;2024-01-30T13:59:55;15.10;;;7.60;;
40198;SDS011;25906;43.536;26.068;2024-01-30T14:02:40;15.52;;;7.72;;
40198;SDS011;25906;43.536;26.068;2024-01-30T14:05:26;14.32;;;7.55;;
40198;SDS011;25906;43.536;26.068;2024-01-30T14:08:14;14.18;;;7.28;;
40198;SDS011;25906;43.536;26.068;2024-01-30T14:13:45;21.75;;;7.68;;
40198;SDS011;25906;43.536;26.068;2024-01-30T14:16:31;17.98;;;8.13;;
40198;SDS011;25906;43.536;26.068;2024-01-30T14:19:16;20.13;;;8.93;;
40198;SDS011;25906;43.536;26.068;2024-01-30T14:22:02;18.75;;;8.13;;
40198;SDS011;25906;43.536;26.068;2024-01-30T14:24:47;17.65;;;8.35;;
40198;SDS011;25906;43.536;26.068;2024-01-30T14:27:33;33.53;;;8.32;;
40198;SDS011;25906;43.536;26.068;2024-01-30T14:30:18;16.23;;;8.13;;
40198;SDS011;25906;43.536;26.068;2024-01-30T14:33:04;15.13;;;7.75;;
40198;SDS011;25906;43.536;26.068;2024-01-30T14:35:49;19.88;;;10.32;;
40198;SDS011;25906;43.536;26.068;2024-01-30T14:38:35;15.75;;;7.10;;
40198;SDS011;25906;43.536;26.068;2024-01-30T14:41:21;14.35;;;7.85;;
40198;SDS011;25906;43.536;26.068;2024-01-30T14:44:07;14.40;;;7.10;;
40198;SDS011;25906;43.536;26.068;2024-01-30T14:46:53;15.43;;;7.70;;
40198;SDS011;25906;43.536;26.068;2024-01-30T14:49:39;17.55;;;7.95;;
40198;SDS011;25906;43.536;26.068;2024-01-30T14:52:25;14.50;;;7.18;;
40198;SDS011;25906;43.536;26.068;2024-01-30T14:55:10;14.23;;;6.65;;
40198;SDS011;25906;43.536;26.068;2024-01-30T14:57:56;13.45;;;6.28;;
40198;SDS011;25906;43.536;26.068;2024-01-30T15:00:41;13.55;;;6.35;;
40198;SDS011;25906;43.536;26.068;2024-01-30T15:03:28;12.98;;;7.22;;
40198;SDS011;25906;43.536;26.068;2024-01-30T15:06:14;13.93;;;6.65;;
40198;SDS011;25906;43.536;26.068;2024-01-30T15:08:59;15.05;;;7.13;;
40198;SDS011;25906;43.536;26.068;2024-01-30T15:11:45;20.80;;;7.18;;
40198;SDS011;25906;43.536;26.068;2024-01-30T15:14:30;11.55;;;5.97;;
40198;SDS011;25906;43.536;26.068;2024-01-30T15:17:17;16.48;;;6.82;;
40198;SDS011;25906;43.536;26.068;2024-01-30T15:20:03;15.45;;;7.43;;
40198;SDS011;25906;43.536;26.068;2024-01-30T15:22:49;24.60;;;9.95;;
40198;SDS011;25906;43.536;26.068;2024-01-30T15:25:34;14.60;;;7.32;;
40198;SDS011;25906;43.536;26.068;2024-01-30T15:28:22;11.88;;;6.35;;
40198;SDS011;25906;43.536;26.068;2024-01-30T15:31:18;13.35;;;6.60;;
40198;SDS011;25906;43.536;26.068;2024-01-30T15:34:04;16.45;;;7.05;;
40198;SDS011;25906;43.536;26.068;2024-01-30T15:36:49;15.85;;;6.63;;
40198;SDS011;25906;43.536;26.068;2024-01-30T15:39:35;13.93;;;6.18;;
40198;SDS011;25906;43.536;26.068;2024-01-30T15:42:20;13.20;;;6.57;;
40198;SDS011;25906;43.536;26.068;2024-01-30T15:45:06;15.13;;;6.70;;
40198;SDS011;25906;43.536;26.068;2024-01-30T15:47:51;14.15;;;6.43;;
40198;SDS011;25906;43.536;26.068;2024-01-30T15:50:37;15.13;;;6.43;;
40198;SDS011;25906;43.536;26.068;2024-01-30T15:53:25;21.83;;;6.45;;
40198;SDS011;25906;43.536;26.068;2024-01-30T15:56:11;20.98;;;7.47;;
40198;SDS011;25906;43.536;26.068;2024-01-30T15:58:56;14.88;;;6.35;;
40198;SDS011;25906;43.536;26.068;2024-01-30T16:01:42;12.45;;;6.25;;
40198;SDS011;25906;43.536;26.068;2024-01-30T16:04:32;11.90;;;6.45;;
40198;SDS011;25906;43.536;26.068;2024-01-30T16:07:18;12.23;;;6.28;;
40198;SDS011;25906;43.536;26.068;2024-01-30T16:10:04;13.75;;;5.95;;
40198;SDS011;25906;43.536;26.068;2024-01-30T16:12:49;12.98;;;6.05;;
40198;SDS011;25906;43.536;26.068;2024-01-30T16:15:35;15.15;;;7.15;;
40198;SDS011;25906;43.536;26.068;2024-01-30T16:18:21;21.90;;;7.50;;
40198;SDS011;25906;43.536;26.068;2024-01-30T16:26:39;14.50;;;6.65;;
40198;SDS011;25906;43.536;26.068;2024-01-30T16:29:24;12.23;;;7.13;;
40198;SDS011;25906;43.536;26.068;2024-01-30T16:32:10;17.35;;;7.20;;
40198;SDS011;25906;43.536;26.068;2024-01-30T16:34:55;13.38;;;7.63;;
40198;SDS011;25906;43.536;26.068;2024-01-30T16:37:41;13.68;;;7.68;;
40198;SDS011;25906;43.536;26.068;2024-01-30T16:40:27;15.73;;;8.07;;
40198;SDS011;25906;43.536;26.068;2024-01-30T16:43:12;17.52;;;8.07;;
40198;SDS011;25906;43.536;26.068;2024-01-30T16:45:58;16.30;;;7.93;;
40198;SDS011;25906;43.536;26.068;2024-01-30T16:48:44;17.33;;;8.65;;
40198;SDS011;25906;43.536;26.068;2024-01-30T16:51:30;20.13;;;8.48;;
40198;SDS011;25906;43.536;26.068;2024-01-30T16:54:15;16.58;;;9.57;;
40198;SDS011;25906;43.536;26.068;2024-01-30T16:59:46;16.75;;;8.05;;